createdAt,value
2022-12-25T00:00:10.405Z,23.67
2022-12-25T00:02:41.159Z,18.00
2022-12-25T00:05:10.153Z,25.33
2022-12-25T00:07:39.894Z,24.70
2022-12-25T00:10:09.765Z,18.97
2022-12-25T00:12:38.242Z,19.50
2022-12-25T00:15:07.513Z,19.90
2022-12-25T00:17:35.829Z,18.90
2022-12-25T00:20:04.226Z,26.47
2022-12-25T00:22:32.469Z,23.57
2022-12-25T00:25:02.273Z,23.43
2022-12-25T00:27:33.526Z,17.80
2022-12-25T00:30:01.908Z,24.17
2022-12-25T00:32:30.254Z,22.37
2022-12-25T00:34:58.484Z,20.33
2022-12-25T00:37:26.949Z,18.87
2022-12-25T00:39:55.191Z,19.27
2022-12-25T00:42:27.023Z,17.70
2022-12-25T00:44:55.386Z,17.33
2022-12-25T00:47:24.038Z,19.27
2022-12-25T00:49:52.417Z,17.30
2022-12-25T00:52:20.718Z,17.87
2022-12-25T00:54:49.092Z,23.33
2022-12-25T00:57:17.469Z,16.07
2022-12-25T00:59:47.089Z,18.57
2022-12-25T01:02:25.993Z,10.77
2022-12-25T01:04:56.204Z,21.57
2022-12-25T01:07:26.314Z,17.97
2022-12-25T01:10:12.342Z,17.53
2022-12-25T01:12:42.410Z,18.47
2022-12-25T01:15:13.354Z,13.77
2022-12-25T01:17:42.143Z,13.77
2022-12-25T01:20:11.473Z,14.17
2022-12-25T01:22:39.860Z,15.90
2022-12-25T01:25:10.708Z,15.23
2022-12-25T01:27:39.874Z,16.53
2022-12-25T01:30:09.289Z,14.83
2022-12-25T01:32:39.192Z,18.27
2022-12-25T01:35:08.203Z,15.20
2022-12-25T01:37:36.452Z,15.73
2022-12-25T01:40:05.270Z,18.87
2022-12-25T01:42:33.611Z,21.17
2022-12-25T01:45:36.285Z,21.27
2022-12-25T01:48:09.442Z,18.30
2022-12-25T01:50:39.425Z,21.97
2022-12-25T01:53:08.428Z,25.23
2022-12-25T01:55:37.614Z,16.90
2022-12-25T01:58:06.139Z,17.13
2022-12-25T02:00:34.557Z,20.07
2022-12-25T02:03:03.142Z,22.33
2022-12-25T02:05:34.382Z,20.10
2022-12-25T02:08:07.102Z,22.73
2022-12-25T02:10:35.543Z,16.83
2022-12-25T02:13:04.069Z,20.87
2022-12-25T02:15:39.292Z,18.47
2022-12-25T02:18:17.055Z,20.47
2022-12-25T02:21:08.314Z,23.10
2022-12-25T02:23:59.326Z,22.27
2022-12-25T02:26:41.983Z,22.13
2022-12-25T02:29:17.371Z,20.37
2022-12-25T02:31:49.916Z,23.60
2022-12-25T02:34:21.812Z,19.70
2022-12-25T02:36:52.506Z,23.50
2022-12-25T02:39:42.131Z,24.37
2022-12-25T02:42:16.236Z,21.07
2022-12-25T02:45:04.913Z,22.93
2022-12-25T02:47:51.403Z,19.87
2022-12-25T02:50:37.978Z,21.17
2022-12-25T02:53:23.870Z,18.57
2022-12-25T02:56:09.992Z,24.07
2022-12-25T02:58:56.789Z,24.27
2022-12-25T03:01:47.723Z,32.53
2022-12-25T03:04:37.922Z,23.40
2022-12-25T03:07:10.623Z,23.17
2022-12-25T03:10:15.301Z,25.93
2022-12-25T03:12:46.674Z,24.67
2022-12-25T03:15:32.423Z,22.40
2022-12-25T03:18:04.623Z,24.93
2022-12-25T03:20:52.175Z,30.20
2022-12-25T03:23:40.670Z,43.20
2022-12-25T03:26:26.680Z,30.13
2022-12-25T03:28:54.970Z,28.27
2022-12-25T03:31:28.066Z,27.27
2022-12-25T03:34:45.486Z,39.00
2022-12-25T03:37:37.486Z,30.13
2022-12-25T03:40:29.166Z,37.77
2022-12-25T03:43:24.556Z,26.83
2022-12-25T03:46:08.844Z,31.30
2022-12-25T03:48:59.071Z,33.77
2022-12-25T03:51:50.080Z,35.83
2022-12-25T03:54:40.295Z,32.00
2022-12-25T03:57:27.219Z,32.20
2022-12-25T04:00:13.318Z,31.30
2022-12-25T04:02:59.043Z,29.70
2022-12-25T04:05:44.675Z,35.53
2022-12-25T04:08:31.708Z,35.37
2022-12-25T04:11:17.340Z,38.53
2022-12-25T04:14:03.204Z,36.23
2022-12-25T04:16:48.809Z,35.80
2022-12-25T04:19:45.998Z,46.07
2022-12-25T04:22:31.676Z,36.30
2022-12-25T04:25:18.623Z,39.63
2022-12-25T04:28:04.858Z,37.03
2022-12-25T04:30:50.602Z,40.83
2022-12-25T04:33:36.282Z,38.60
2022-12-25T04:36:10.654Z,44.63
2022-12-25T04:38:39.723Z,41.93
2022-12-25T04:41:09.679Z,34.20
2022-12-25T04:43:37.986Z,40.23
2022-12-25T04:46:07.281Z,44.20
2022-12-25T04:48:37.048Z,42.20
2022-12-25T04:51:15.852Z,42.60
2022-12-25T04:53:44.385Z,30.73
2022-12-25T04:56:14.214Z,36.90
2022-12-25T04:58:42.946Z,41.63
2022-12-25T05:01:12.013Z,40.67
2022-12-25T05:03:40.685Z,35.77
2022-12-25T05:06:09.320Z,44.90
2022-12-25T05:08:37.637Z,43.80
2022-12-25T05:11:10.519Z,51.67
2022-12-25T05:13:40.652Z,59.80
2022-12-25T05:16:10.512Z,118.13
2022-12-25T05:18:38.945Z,123.90
2022-12-25T05:21:08.537Z,111.37
2022-12-25T05:23:37.009Z,123.70
2022-12-25T05:26:06.848Z,124.80
2022-12-25T05:28:35.835Z,95.03
2022-12-25T05:31:05.504Z,49.67
2022-12-25T05:33:33.834Z,68.63
2022-12-25T05:36:03.901Z,56.40
2022-12-25T05:38:32.249Z,74.30
2022-12-25T05:41:00.648Z,73.50
2022-12-25T05:43:28.940Z,56.77
2022-12-25T05:45:57.437Z,76.70
2022-12-25T05:48:27.121Z,40.43
2022-12-25T05:50:55.387Z,34.27
2022-12-25T05:53:23.754Z,50.17
2022-12-25T05:55:51.998Z,59.90
2022-12-25T05:58:20.315Z,94.80
2022-12-25T06:00:48.625Z,60.20
2022-12-25T06:03:17.068Z,98.63
2022-12-25T06:05:46.798Z,54.17
2022-12-25T06:08:15.026Z,141.17
2022-12-25T06:10:43.283Z,92.13
2022-12-25T06:13:11.659Z,131.90
2022-12-25T06:15:40.776Z,119.57
2022-12-25T06:18:09.470Z,61.13
2022-12-25T06:20:37.906Z,87.13
2022-12-25T06:23:07.646Z,82.40
2022-12-25T06:25:35.946Z,104.43
2022-12-25T06:28:04.257Z,87.20
2022-12-25T06:30:32.937Z,84.93
2022-12-25T06:33:01.646Z,61.60
2022-12-25T06:35:30.189Z,51.27
2022-12-25T06:37:58.458Z,59.40
2022-12-25T06:40:28.215Z,97.20
2022-12-25T06:42:56.663Z,82.67
2022-12-25T06:45:24.985Z,148.20
2022-12-25T06:47:53.274Z,173.33
2022-12-25T06:50:21.730Z,83.87
2022-12-25T06:52:50.211Z,59.10
2022-12-25T06:55:18.472Z,90.30
2022-12-25T06:57:48.185Z,80.77
2022-12-25T07:00:17.071Z,143.33
2022-12-25T07:02:48.112Z,86.73
2022-12-25T07:05:16.618Z,79.43
2022-12-25T07:07:44.875Z,72.97
2022-12-25T07:10:13.298Z,113.57
2022-12-25T07:12:41.576Z,91.80
2022-12-25T07:15:11.985Z,153.77
2022-12-25T07:17:40.249Z,88.27
2022-12-25T07:20:09.817Z,117.40
2022-12-25T07:22:38.192Z,98.13
2022-12-25T07:25:07.398Z,107.97
2022-12-25T07:27:35.622Z,119.37
2022-12-25T07:30:04.057Z,84.47
2022-12-25T07:32:34.322Z,89.83
2022-12-25T07:35:02.573Z,90.63
2022-12-25T07:37:30.862Z,73.53
2022-12-25T07:39:59.030Z,87.47
2022-12-25T07:42:27.508Z,54.03
2022-12-25T07:44:56.189Z,48.33
2022-12-25T07:47:24.546Z,73.93
2022-12-25T07:49:54.235Z,65.73
2022-12-25T07:52:22.931Z,41.57
2022-12-25T07:54:51.369Z,83.40
2022-12-25T07:57:19.633Z,78.23
2022-12-25T07:59:47.908Z,82.93
2022-12-25T08:02:16.732Z,59.67
2022-12-25T08:04:45.129Z,61.87
2022-12-25T08:07:15.677Z,42.70
2022-12-25T08:09:43.975Z,54.90
2022-12-25T08:12:12.362Z,68.03
2022-12-25T08:14:40.726Z,85.50
2022-12-25T08:17:09.233Z,51.27
2022-12-25T08:19:37.457Z,60.73
2022-12-25T08:22:05.861Z,80.33
2022-12-25T08:24:35.474Z,54.20
2022-12-25T08:27:04.157Z,75.37
2022-12-25T08:29:33.536Z,43.10
2022-12-25T08:32:02.000Z,50.83
2022-12-25T08:34:30.305Z,48.23
2022-12-25T08:36:58.607Z,56.37
2022-12-25T08:39:26.895Z,49.53
2022-12-25T08:41:56.501Z,60.83
2022-12-25T08:44:24.730Z,62.53
2022-12-25T08:46:53.014Z,41.60
2022-12-25T08:49:21.435Z,50.27
2022-12-25T08:51:49.911Z,43.60
2022-12-25T08:54:18.175Z,46.83
2022-12-25T08:56:46.465Z,45.27
2022-12-25T08:59:16.094Z,45.17
2022-12-25T09:01:44.403Z,46.97
2022-12-25T09:04:12.743Z,83.70
2022-12-25T09:06:40.979Z,46.53
2022-12-25T09:09:09.340Z,72.63
2022-12-25T09:11:38.095Z,94.87
2022-12-25T09:14:06.335Z,37.93
2022-12-25T09:16:36.052Z,30.40
2022-12-25T09:19:04.345Z,41.50
2022-12-25T09:21:32.607Z,49.23
2022-12-25T09:24:00.893Z,58.07
2022-12-25T09:26:29.436Z,44.13
2022-12-25T09:28:57.692Z,38.10
2022-12-25T09:31:26.021Z,31.13
2022-12-25T09:33:58.387Z,22.53
2022-12-25T09:36:26.994Z,29.57
2022-12-25T09:38:55.370Z,34.17
2022-12-25T09:41:29.775Z,27.53
2022-12-25T09:44:01.727Z,26.57
2022-12-25T09:46:37.691Z,35.33
2022-12-25T09:49:13.207Z,30.67
2022-12-25T09:51:42.555Z,26.00
2022-12-25T09:54:15.896Z,31.73
2022-12-25T09:56:44.234Z,32.20
2022-12-25T09:59:19.728Z,27.23
2022-12-25T10:02:02.676Z,21.57
2022-12-25T10:04:43.912Z,25.83
2022-12-25T10:07:16.427Z,25.43
2022-12-25T10:09:53.618Z,22.80
2022-12-25T10:12:31.653Z,24.23
2022-12-25T10:15:11.395Z,22.37
2022-12-25T10:17:46.760Z,22.00
2022-12-25T10:20:22.560Z,24.40
2022-12-25T10:22:54.231Z,21.10
2022-12-25T10:25:24.822Z,24.20
2022-12-25T10:27:55.559Z,20.70
2022-12-25T10:30:25.946Z,17.93
2022-12-25T10:32:54.611Z,21.50
2022-12-25T10:35:26.218Z,21.10
2022-12-25T10:37:58.738Z,21.63
2022-12-25T10:40:32.550Z,21.30
2022-12-25T10:43:05.308Z,22.53
2022-12-25T10:45:44.331Z,19.73
2022-12-25T10:48:18.015Z,23.17
2022-12-25T10:50:47.957Z,23.20
2022-12-25T10:53:20.919Z,23.67
2022-12-25T10:55:56.929Z,27.37
2022-12-25T10:58:25.327Z,21.20
2022-12-25T11:00:55.196Z,21.67
2022-12-25T11:03:25.794Z,21.80
2022-12-25T11:05:55.598Z,20.93
2022-12-25T11:08:24.919Z,17.67
2022-12-25T11:10:55.109Z,22.73
2022-12-25T11:13:25.498Z,21.30
2022-12-25T11:16:04.568Z,20.43
2022-12-25T11:18:35.766Z,22.67
2022-12-25T11:21:17.625Z,19.53
2022-12-25T11:23:47.822Z,18.47
2022-12-25T11:26:17.081Z,18.40
2022-12-25T11:28:46.710Z,17.80
2022-12-25T11:31:19.264Z,23.87
2022-12-25T11:33:53.806Z,16.50
2022-12-25T11:36:30.160Z,20.40
2022-12-25T11:39:01.710Z,20.50
2022-12-25T11:41:33.177Z,20.53
2022-12-25T11:44:05.123Z,19.60
2022-12-25T11:46:40.257Z,22.13
2022-12-25T11:49:13.558Z,18.70
2022-12-25T11:51:46.104Z,18.27
2022-12-25T11:54:19.221Z,17.73
2022-12-25T11:56:47.781Z,20.33
2022-12-25T11:59:19.582Z,25.73
2022-12-25T12:01:49.832Z,18.20
2022-12-25T12:04:27.610Z,20.53
2022-12-25T12:07:02.740Z,22.23
2022-12-25T12:09:38.876Z,18.50
2022-12-25T12:12:14.189Z,18.97
2022-12-25T12:14:49.141Z,22.30
2022-12-25T12:17:18.337Z,21.57
2022-12-25T12:19:47.058Z,19.57
2022-12-25T12:22:21.054Z,20.77
2022-12-25T12:24:54.788Z,22.97
2022-12-25T12:27:26.845Z,22.67
2022-12-25T12:29:59.933Z,25.80
2022-12-25T12:32:37.210Z,19.43
2022-12-25T12:35:17.435Z,19.43
2022-12-25T12:37:50.090Z,24.87
2022-12-25T12:40:39.315Z,23.80
2022-12-25T12:43:08.676Z,23.63
2022-12-25T12:45:38.392Z,20.57
2022-12-25T12:48:16.508Z,19.80
2022-12-25T12:50:44.813Z,19.33
2022-12-25T12:53:28.578Z,25.50
2022-12-25T12:55:56.859Z,22.33
2022-12-25T12:58:34.140Z,19.03
2022-12-25T13:01:11.188Z,21.50
2022-12-25T13:04:04.856Z,24.13
2022-12-25T13:06:38.021Z,20.00
2022-12-25T13:09:16.545Z,25.13
2022-12-25T13:11:45.823Z,22.37
2022-12-25T13:14:16.405Z,30.07
2022-12-25T13:16:46.649Z,26.67
2022-12-25T13:19:16.661Z,28.90
2022-12-25T13:21:53.920Z,20.70
2022-12-25T13:24:25.272Z,24.20
2022-12-25T13:26:53.857Z,21.87
2022-12-25T13:29:30.938Z,24.70
2022-12-25T13:31:59.884Z,20.63
2022-12-25T13:34:32.438Z,20.63
2022-12-25T13:37:01.302Z,17.50
2022-12-25T13:39:30.993Z,18.10
2022-12-25T13:42:05.373Z,21.53
2022-12-25T13:44:42.410Z,16.80
2022-12-25T13:47:18.393Z,17.47
2022-12-25T13:49:47.549Z,16.57
2022-12-25T13:52:17.492Z,22.23
2022-12-25T13:55:01.477Z,18.40
2022-12-25T13:57:32.910Z,21.03
2022-12-25T14:00:01.703Z,16.67
2022-12-25T14:02:36.296Z,20.20
2022-12-25T14:05:05.294Z,19.43
2022-12-25T14:07:34.788Z,18.07
2022-12-25T14:10:05.292Z,19.27
2022-12-25T14:12:34.407Z,20.37
2022-12-25T14:15:05.381Z,21.83
2022-12-25T14:17:34.363Z,13.50
2022-12-25T14:20:08.288Z,18.63
2022-12-25T14:22:38.604Z,17.17
2022-12-25T14:25:16.763Z,13.83
2022-12-25T14:27:50.405Z,19.00
2022-12-25T14:30:19.263Z,16.10
2022-12-25T14:32:51.746Z,18.70
2022-12-25T14:35:23.575Z,16.80
2022-12-25T14:37:56.482Z,13.77
2022-12-25T14:40:30.348Z,18.37
2022-12-25T14:43:00.196Z,13.53
2022-12-25T14:45:31.286Z,19.73
2022-12-25T14:48:02.883Z,22.17
2022-12-25T14:50:33.499Z,16.53
2022-12-25T14:53:02.033Z,15.60
2022-12-25T14:55:32.062Z,23.60
2022-12-25T14:58:04.467Z,17.43
2022-12-25T15:00:35.477Z,16.07
2022-12-25T15:03:06.242Z,16.03
2022-12-25T15:05:36.549Z,18.93
2022-12-25T15:08:23.352Z,15.93
2022-12-25T15:11:02.573Z,14.63
2022-12-25T15:13:32.453Z,18.33
2022-12-25T15:16:04.719Z,18.27
2022-12-25T15:18:35.802Z,18.97
2022-12-25T15:21:04.488Z,18.90
2022-12-25T15:23:32.773Z,23.97
2022-12-25T15:26:02.397Z,17.80
2022-12-25T15:28:30.577Z,18.77
2022-12-25T15:30:58.830Z,16.63
2022-12-25T15:33:27.184Z,18.20
2022-12-25T15:35:55.452Z,21.90
2022-12-25T15:38:23.639Z,18.17
2022-12-25T15:40:52.359Z,19.53
2022-12-25T15:43:39.970Z,22.03
2022-12-25T15:46:10.326Z,22.90
2022-12-25T15:48:38.686Z,20.33
2022-12-25T15:51:07.175Z,24.00
2022-12-25T15:53:35.458Z,20.33
2022-12-25T15:56:03.813Z,23.03
2022-12-25T15:58:33.434Z,22.67
2022-12-25T16:01:01.774Z,22.57
2022-12-25T16:03:30.212Z,21.67
2022-12-25T16:05:58.573Z,19.83
2022-12-25T16:08:26.839Z,19.50
2022-12-25T16:10:55.128Z,20.83
2022-12-25T16:13:23.286Z,23.60
2022-12-25T16:15:53.048Z,22.37
2022-12-25T16:18:21.376Z,31.40
2022-12-25T16:20:49.680Z,25.97
2022-12-25T16:23:18.036Z,26.90
2022-12-25T16:25:46.328Z,29.43
2022-12-25T16:28:14.589Z,33.40
2022-12-25T16:30:43.017Z,29.13
2022-12-25T16:33:12.781Z,29.50
2022-12-25T16:35:41.050Z,25.47
2022-12-25T16:38:09.314Z,27.50
2022-12-25T16:40:37.591Z,23.67
2022-12-25T16:43:06.017Z,25.40
2022-12-25T16:45:39.269Z,22.03
2022-12-25T16:48:08.718Z,31.30
2022-12-25T16:50:40.746Z,27.80
2022-12-25T16:53:09.431Z,30.13
2022-12-25T16:55:38.820Z,29.87
2022-12-25T16:58:07.911Z,27.60
2022-12-25T17:00:36.229Z,24.43
2022-12-25T17:03:04.629Z,30.87
2022-12-25T17:05:34.701Z,29.30
2022-12-25T17:08:04.406Z,29.93
2022-12-25T17:10:33.213Z,33.90
2022-12-25T17:13:01.479Z,28.67
2022-12-25T17:15:29.781Z,30.27
2022-12-25T17:17:58.196Z,27.47
2022-12-25T17:20:26.519Z,28.00
2022-12-25T17:22:54.796Z,28.53
2022-12-25T17:25:24.401Z,32.20
2022-12-25T17:27:52.786Z,26.30
2022-12-25T17:30:21.205Z,28.43
2022-12-25T17:32:49.756Z,26.53
2022-12-25T17:35:20.608Z,24.57
2022-12-25T17:37:48.874Z,24.57
2022-12-25T17:40:17.414Z,29.33
2022-12-25T17:42:47.115Z,29.07
2022-12-25T17:45:15.719Z,27.03
2022-12-25T17:47:43.994Z,27.53
2022-12-25T17:50:12.473Z,33.00
2022-12-25T17:52:40.888Z,33.10
2022-12-25T17:55:10.037Z,32.10
2022-12-25T17:57:41.133Z,25.70
2022-12-25T18:00:13.247Z,26.20
2022-12-25T18:02:43.856Z,32.40
2022-12-25T18:05:12.307Z,36.87
2022-12-25T18:07:40.552Z,29.33
2022-12-25T18:10:09.861Z,28.50
2022-12-25T18:12:38.266Z,33.03
2022-12-25T18:15:07.213Z,28.87
2022-12-25T18:17:36.859Z,33.93
2022-12-25T18:20:05.575Z,27.60
2022-12-25T18:22:35.407Z,33.17
2022-12-25T18:25:03.635Z,29.70
2022-12-25T18:27:31.963Z,32.53
2022-12-25T18:30:00.856Z,34.10
2022-12-25T18:32:29.538Z,34.00
2022-12-25T18:34:59.367Z,36.27
2022-12-25T18:37:31.918Z,35.90
2022-12-25T18:40:03.206Z,33.60
2022-12-25T18:42:40.722Z,45.27
2022-12-25T18:45:11.758Z,38.47
2022-12-25T18:47:40.127Z,38.57
2022-12-25T18:50:11.437Z,37.47
2022-12-25T18:52:47.969Z,34.13
2022-12-25T18:55:20.253Z,39.03
2022-12-25T18:57:49.493Z,30.67
2022-12-25T19:00:18.574Z,37.70
2022-12-25T19:02:47.048Z,38.97
2022-12-25T19:05:17.506Z,34.00
2022-12-25T19:07:45.858Z,35.70
2022-12-25T19:10:15.601Z,32.33
2022-12-25T19:12:43.982Z,29.13
2022-12-25T19:15:12.583Z,33.83
2022-12-25T19:17:41.023Z,32.73
2022-12-25T19:20:11.037Z,40.23
2022-12-25T19:22:40.774Z,34.80
2022-12-25T19:25:10.033Z,36.60
2022-12-25T19:27:38.531Z,36.17
2022-12-25T19:30:09.586Z,35.47
2022-12-25T19:32:37.865Z,37.60
2022-12-25T19:35:07.281Z,37.47
2022-12-25T19:37:36.241Z,38.70
2022-12-25T19:40:07.287Z,38.40
2022-12-25T19:42:35.722Z,35.50
2022-12-25T19:45:04.279Z,38.07
2022-12-25T19:47:32.919Z,32.67
2022-12-25T19:50:03.377Z,38.80
2022-12-25T19:52:35.895Z,37.20
2022-12-25T19:55:05.992Z,33.63
2022-12-25T19:57:34.262Z,33.43
2022-12-25T20:00:02.594Z,33.83
2022-12-25T20:02:30.984Z,32.37
2022-12-25T20:04:59.398Z,43.10
2022-12-25T20:07:27.758Z,37.23
2022-12-25T20:09:55.949Z,35.50
2022-12-25T20:12:25.759Z,38.97
2022-12-25T20:14:54.055Z,35.57
2022-12-25T20:17:22.395Z,33.97
2022-12-25T20:19:50.593Z,39.37
2022-12-25T20:22:18.870Z,36.13
2022-12-25T20:24:49.103Z,29.97
2022-12-25T20:27:17.469Z,29.70
2022-12-25T20:29:47.185Z,36.93
2022-12-25T20:32:16.084Z,35.87
2022-12-25T20:34:44.572Z,30.37
2022-12-25T20:37:12.811Z,34.37
2022-12-25T20:39:41.201Z,35.67
2022-12-25T20:42:09.675Z,31.17
2022-12-25T20:44:38.863Z,35.07
2022-12-25T20:47:08.930Z,30.53
2022-12-25T20:49:37.176Z,36.07
2022-12-25T20:52:06.121Z,33.67
2022-12-25T20:54:34.493Z,36.40
2022-12-25T20:57:02.691Z,27.77
2022-12-25T20:59:36.997Z,28.30
2022-12-25T21:02:06.013Z,26.93
2022-12-25T21:04:35.732Z,26.30
2022-12-25T21:07:05.256Z,30.23
2022-12-25T21:09:33.659Z,36.70
2022-12-25T21:12:02.002Z,27.07
2022-12-25T21:14:31.716Z,28.60
2022-12-25T21:17:00.041Z,28.10
2022-12-25T21:19:28.349Z,29.27
2022-12-25T21:21:58.611Z,28.03
2022-12-25T21:24:27.144Z,22.30
2022-12-25T21:26:55.367Z,20.60
2022-12-25T21:29:24.488Z,21.93
2022-12-25T21:32:11.659Z,25.57
2022-12-25T21:34:39.953Z,24.07
2022-12-25T21:37:09.563Z,20.53
2022-12-25T21:39:37.833Z,25.33
2022-12-25T21:42:06.429Z,19.53
2022-12-25T21:44:34.892Z,21.20
2022-12-25T21:47:03.375Z,19.63
2022-12-25T21:49:49.143Z,18.20
2022-12-25T21:52:19.308Z,17.57
2022-12-25T21:54:47.654Z,19.47
2022-12-25T21:57:15.846Z,17.77
2022-12-25T21:59:45.517Z,21.90
2022-12-25T22:02:13.868Z,21.47
2022-12-25T22:04:42.323Z,17.43
2022-12-25T22:07:18.649Z,19.17
2022-12-25T22:09:49.927Z,19.43
2022-12-25T22:12:48.082Z,21.90
2022-12-25T22:15:16.497Z,18.20
2022-12-25T22:18:02.228Z,21.53
2022-12-25T22:20:34.619Z,22.57
2022-12-25T22:23:03.540Z,22.13
2022-12-25T22:25:33.229Z,16.63
2022-12-25T22:28:01.519Z,23.97
2022-12-25T22:30:30.812Z,13.27
2022-12-25T22:32:59.216Z,18.67
2022-12-25T22:35:27.463Z,15.60
2022-12-25T22:37:55.957Z,19.10
2022-12-25T22:40:24.432Z,19.03
2022-12-25T22:42:56.470Z,15.73
2022-12-25T22:45:25.107Z,17.00
2022-12-25T22:47:53.355Z,14.93
2022-12-25T22:50:21.639Z,17.13
2022-12-25T22:52:50.049Z,20.43
2022-12-25T22:55:20.188Z,14.40
2022-12-25T22:57:49.058Z,17.47
2022-12-25T23:00:18.959Z,16.47
2022-12-25T23:02:47.486Z,16.20
2022-12-25T23:05:16.289Z,20.70
2022-12-25T23:07:44.578Z,15.90
2022-12-25T23:10:13.532Z,16.33
2022-12-25T23:13:00.711Z,23.73
2022-12-25T23:15:30.377Z,15.07
2022-12-25T23:18:15.954Z,19.33
2022-12-25T23:21:10.270Z,17.37
2022-12-25T23:23:56.275Z,13.03
2022-12-25T23:26:24.643Z,17.13
2022-12-25T23:29:10.411Z,15.70
2022-12-25T23:31:42.285Z,15.47
2022-12-25T23:34:11.130Z,17.37
2022-12-25T23:36:39.349Z,14.80
2022-12-25T23:39:10.467Z,15.43
2022-12-25T23:41:39.967Z,17.10
2022-12-25T23:44:08.810Z,17.00
2022-12-25T23:46:37.385Z,13.13
2022-12-25T23:49:07.110Z,11.60
2022-12-25T23:51:36.599Z,17.63
2022-12-25T23:54:05.261Z,12.60
2022-12-25T23:56:34.275Z,13.83
2022-12-25T23:59:05.047Z,16.93
